sensor_id;sensor_type;location;lat;lon;timestamp;temperature;humidity
59208;DHT22;44977;53.132;6.408;2023-07-22T00:02:31;14.10;99.90
59208;DHT22;44977;53.132;6.408;2023-07-22T00:07:32;14.00;99.90
59208;DHT22;44977;53.132;6.408;2023-07-22T00:12:34;13.90;99.90
59208;DHT22;44977;53.132;6.408;2023-07-22T00:17:35;13.80;99.90
59208;DHT22;44977;53.132;6.408;2023-07-22T00:22:36;13.80;99.90
59208;DHT22;44977;53.132;6.408;2023-07-22T00:27:38;13.80;99.90
59208;DHT22;44977;53.132;6.408;2023-07-22T00:32:39;13.70;99.90
59208;DHT22;44977;53.132;6.408;2023-07-22T00:37:41;13.60;99.90
59208;DHT22;44977;53.132;6.408;2023-07-22T00:42:42;13.70;99.90
59208;DHT22;44977;53.132;6.408;2023-07-22T00:47:44;13.60;99.90
59208;DHT22;44977;53.132;6.408;2023-07-22T00:52:45;13.60;99.90
59208;DHT22;44977;53.132;6.408;2023-07-22T00:57:46;13.50;99.90
59208;DHT22;44977;53.132;6.408;2023-07-22T01:02:48;13.40;99.90
59208;DHT22;44977;53.132;6.408;2023-07-22T01:07:50;13.40;99.90
59208;DHT22;44977;53.132;6.408;2023-07-22T01:12:51;13.30;99.90
59208;DHT22;44977;53.132;6.408;2023-07-22T01:17:52;13.30;99.90
59208;DHT22;44977;53.132;6.408;2023-07-22T01:22:54;13.30;99.90
59208;DHT22;44977;53.132;6.408;2023-07-22T01:27:55;13.30;99.90
59208;DHT22;44977;53.132;6.408;2023-07-22T01:32:55;13.30;99.90
59208;DHT22;44977;53.132;6.408;2023-07-22T01:37:56;13.20;99.90
59208;DHT22;44977;53.132;6.408;2023-07-22T01:42:57;13.20;99.90
59208;DHT22;44977;53.132;6.408;2023-07-22T01:47:57;13.20;99.90
59208;DHT22;44977;53.132;6.408;2023-07-22T01:52:58;13.10;99.90
59208;DHT22;44977;53.132;6.408;2023-07-22T01:58:00;13.10;99.90
59208;DHT22;44977;53.132;6.408;2023-07-22T02:03:01;13.10;99.90
59208;DHT22;44977;53.132;6.408;2023-07-22T02:08:01;13.00;99.90
59208;DHT22;44977;53.132;6.408;2023-07-22T02:13:02;13.00;99.90
59208;DHT22;44977;53.132;6.408;2023-07-22T02:18:04;12.90;99.90
59208;DHT22;44977;53.132;6.408;2023-07-22T02:23:05;12.90;99.90
59208;DHT22;44977;53.132;6.408;2023-07-22T02:28:06;12.90;99.90
59208;DHT22;44977;53.132;6.408;2023-07-22T02:33:08;12.80;99.90
59208;DHT22;44977;53.132;6.408;2023-07-22T02:38:09;12.80;99.90
59208;DHT22;44977;53.132;6.408;2023-07-22T02:43:10;12.80;99.90
59208;DHT22;44977;53.132;6.408;2023-07-22T02:48:11;12.80;99.90
59208;DHT22;44977;53.132;6.408;2023-07-22T02:53:11;12.70;99.90
59208;DHT22;44977;53.132;6.408;2023-07-22T02:58:12;12.70;99.90
59208;DHT22;44977;53.132;6.408;2023-07-22T03:03:13;12.80;99.90
59208;DHT22;44977;53.132;6.408;2023-07-22T03:08:14;12.70;99.90
59208;DHT22;44977;53.132;6.408;2023-07-22T03:13:15;12.70;99.90
59208;DHT22;44977;53.132;6.408;2023-07-22T03:18:16;12.70;99.90
59208;DHT22;44977;53.132;6.408;2023-07-22T03:23:17;12.60;99.90
59208;DHT22;44977;53.132;6.408;2023-07-22T03:28:18;12.60;99.90
59208;DHT22;44977;53.132;6.408;2023-07-22T03:33:18;12.50;99.90
59208;DHT22;44977;53.132;6.408;2023-07-22T03:38:19;12.60;99.90
59208;DHT22;44977;53.132;6.408;2023-07-22T03:43:20;12.60;99.90
59208;DHT22;44977;53.132;6.408;2023-07-22T03:48:20;12.60;99.90
59208;DHT22;44977;53.132;6.408;2023-07-22T03:53:21;12.60;99.90
59208;DHT22;44977;53.132;6.408;2023-07-22T03:58:22;12.60;99.90
59208;DHT22;44977;53.132;6.408;2023-07-22T04:03:22;12.60;99.90
59208;DHT22;44977;53.132;6.408;2023-07-22T04:08:23;12.60;99.90
59208;DHT22;44977;53.132;6.408;2023-07-22T04:13:25;12.70;99.90
59208;DHT22;44977;53.132;6.408;2023-07-22T04:18:26;12.70;99.90
59208;DHT22;44977;53.132;6.408;2023-07-22T04:23:27;12.70;99.90
59208;DHT22;44977;53.132;6.408;2023-07-22T04:28:27;12.80;99.90
59208;DHT22;44977;53.132;6.408;2023-07-22T04:33:28;12.80;99.90
59208;DHT22;44977;53.132;6.408;2023-07-22T04:38:29;12.80;99.90
59208;DHT22;44977;53.132;6.408;2023-07-22T04:43:30;12.90;99.90
59208;DHT22;44977;53.132;6.408;2023-07-22T04:48:30;12.90;99.90
59208;DHT22;44977;53.132;6.408;2023-07-22T04:53:32;13.00;99.90
59208;DHT22;44977;53.132;6.408;2023-07-22T04:58:33;13.00;99.90
59208;DHT22;44977;53.132;6.408;2023-07-22T05:03:33;13.00;99.90
59208;DHT22;44977;53.132;6.408;2023-07-22T05:08:34;13.10;99.90
59208;DHT22;44977;53.132;6.408;2023-07-22T05:13:35;13.20;99.90
59208;DHT22;44977;53.132;6.408;2023-07-22T05:18:35;13.20;99.90
59208;DHT22;44977;53.132;6.408;2023-07-22T05:23:37;13.30;99.90
59208;DHT22;44977;53.132;6.408;2023-07-22T05:28:38;13.30;99.90
59208;DHT22;44977;53.132;6.408;2023-07-22T05:33:39;13.40;99.90
59208;DHT22;44977;53.132;6.408;2023-07-22T05:38:39;13.50;99.90
59208;DHT22;44977;53.132;6.408;2023-07-22T05:43:40;13.60;99.90
59208;DHT22;44977;53.132;6.408;2023-07-22T05:48:41;13.70;99.90
59208;DHT22;44977;53.132;6.408;2023-07-22T05:53:41;13.80;99.90
59208;DHT22;44977;53.132;6.408;2023-07-22T05:58:42;13.90;99.90
59208;DHT22;44977;53.132;6.408;2023-07-22T06:03:43;14.10;99.90
59208;DHT22;44977;53.132;6.408;2023-07-22T06:08:44;14.20;99.90
59208;DHT22;44977;53.132;6.408;2023-07-22T06:13:44;14.30;99.90
59208;DHT22;44977;53.132;6.408;2023-07-22T06:18:45;14.40;99.90
59208;DHT22;44977;53.132;6.408;2023-07-22T06:23:46;14.60;99.90
59208;DHT22;44977;53.132;6.408;2023-07-22T06:28:46;14.70;99.90
59208;DHT22;44977;53.132;6.408;2023-07-22T06:33:47;14.90;99.90
59208;DHT22;44977;53.132;6.408;2023-07-22T06:38:48;15.10;99.90
59208;DHT22;44977;53.132;6.408;2023-07-22T06:43:49;15.30;99.90
59208;DHT22;44977;53.132;6.408;2023-07-22T06:48:50;15.50;99.90
59208;DHT22;44977;53.132;6.408;2023-07-22T06:53:51;15.60;99.90
59208;DHT22;44977;53.132;6.408;2023-07-22T06:58:52;15.80;99.90
59208;DHT22;44977;53.132;6.408;2023-07-22T07:03:52;16.00;99.90
59208;DHT22;44977;53.132;6.408;2023-07-22T07:08:53;16.10;99.90
59208;DHT22;44977;53.132;6.408;2023-07-22T07:13:55;16.20;99.90
59208;DHT22;44977;53.132;6.408;2023-07-22T07:18:56;16.20;99.90
59208;DHT22;44977;53.132;6.408;2023-07-22T07:23:57;16.20;99.90
59208;DHT22;44977;53.132;6.408;2023-07-22T07:28:58;16.30;99.90
59208;DHT22;44977;53.132;6.408;2023-07-22T07:33:59;16.30;99.90
59208;DHT22;44977;53.132;6.408;2023-07-22T07:38:59;16.30;99.90
59208;DHT22;44977;53.132;6.408;2023-07-22T07:44:00;16.40;99.90
59208;DHT22;44977;53.132;6.408;2023-07-22T07:49:01;16.60;99.90
59208;DHT22;44977;53.132;6.408;2023-07-22T07:54:02;16.70;99.90
59208;DHT22;44977;53.132;6.408;2023-07-22T07:59:05;16.80;99.90
59208;DHT22;44977;53.132;6.408;2023-07-22T08:04:06;16.90;99.90
59208;DHT22;44977;53.132;6.408;2023-07-22T08:09:07;17.00;99.90
59208;DHT22;44977;53.132;6.408;2023-07-22T08:14:11;17.10;99.90
59208;DHT22;44977;53.132;6.408;2023-07-22T08:19:12;17.20;99.90
59208;DHT22;44977;53.132;6.408;2023-07-22T08:24:13;17.30;99.90
59208;DHT22;44977;53.132;6.408;2023-07-22T08:29:14;17.50;99.90
59208;DHT22;44977;53.132;6.408;2023-07-22T08:34:15;17.70;99.90
59208;DHT22;44977;53.132;6.408;2023-07-22T08:39:15;17.80;99.90
59208;DHT22;44977;53.132;6.408;2023-07-22T08:44:19;17.90;99.90
59208;DHT22;44977;53.132;6.408;2023-07-22T08:49:21;18.00;99.90
59208;DHT22;44977;53.132;6.408;2023-07-22T08:54:23;18.20;99.90
59208;DHT22;44977;53.132;6.408;2023-07-22T08:59:24;18.30;99.90
59208;DHT22;44977;53.132;6.408;2023-07-22T09:04:25;18.40;99.90
59208;DHT22;44977;53.132;6.408;2023-07-22T09:09:26;18.50;99.90
59208;DHT22;44977;53.132;6.408;2023-07-22T09:14:28;18.40;99.90
59208;DHT22;44977;53.132;6.408;2023-07-22T09:19:31;18.30;99.90
59208;DHT22;44977;53.132;6.408;2023-07-22T09:24:32;18.10;99.90
59208;DHT22;44977;53.132;6.408;2023-07-22T09:29:39;17.90;99.90
59208;DHT22;44977;53.132;6.408;2023-07-22T09:34:54;17.70;99.90
59208;DHT22;44977;53.132;6.408;2023-07-22T09:39:56;17.60;99.90
59208;DHT22;44977;53.132;6.408;2023-07-22T09:44:56;17.50;99.90
59208;DHT22;44977;53.132;6.408;2023-07-22T09:49:57;17.60;99.90
59208;DHT22;44977;53.132;6.408;2023-07-22T09:55:01;17.60;99.90
59208;DHT22;44977;53.132;6.408;2023-07-22T10:00:02;17.50;99.90
59208;DHT22;44977;53.132;6.408;2023-07-22T10:05:03;17.50;99.90
59208;DHT22;44977;53.132;6.408;2023-07-22T10:10:08;17.50;99.90
59208;DHT22;44977;53.132;6.408;2023-07-22T10:15:19;17.50;99.90
59208;DHT22;44977;53.132;6.408;2023-07-22T10:20:20;17.40;99.90
59208;DHT22;44977;53.132;6.408;2023-07-22T10:25:23;17.40;99.90
59208;DHT22;44977;53.132;6.408;2023-07-22T10:30:24;17.30;99.90
59208;DHT22;44977;53.132;6.408;2023-07-22T10:40:31;17.20;99.90
59208;DHT22;44977;53.132;6.408;2023-07-22T10:45:35;17.20;99.90
59208;DHT22;44977;53.132;6.408;2023-07-22T10:50:47;17.20;99.90
59208;DHT22;44977;53.132;6.408;2023-07-22T11:06:29;17.00;99.90
59208;DHT22;44977;53.132;6.408;2023-07-22T11:11:40;17.00;99.90
59208;DHT22;44977;53.132;6.408;2023-07-22T11:16:46;17.00;99.90
59208;DHT22;44977;53.132;6.408;2023-07-22T11:21:48;17.00;99.90
59208;DHT22;44977;53.132;6.408;2023-07-22T11:26:49;16.90;99.90
59208;DHT22;44977;53.132;6.408;2023-07-22T11:31:51;16.90;99.90
59208;DHT22;44977;53.132;6.408;2023-07-22T11:36:53;16.90;99.90
59208;DHT22;44977;53.132;6.408;2023-07-22T11:41:54;16.90;99.90
59208;DHT22;44977;53.132;6.408;2023-07-22T11:47:00;16.80;99.90
59208;DHT22;44977;53.132;6.408;2023-07-22T11:52:11;16.90;99.90
59208;DHT22;44977;53.132;6.408;2023-07-22T11:57:20;16.80;99.90
59208;DHT22;44977;53.132;6.408;2023-07-22T12:02:23;16.90;99.90
59208;DHT22;44977;53.132;6.408;2023-07-22T12:07:27;16.90;99.90
59208;DHT22;44977;53.132;6.408;2023-07-22T12:12:44;16.90;99.90
59208;DHT22;44977;53.132;6.408;2023-07-22T12:18:02;16.90;99.90
59208;DHT22;44977;53.132;6.408;2023-07-22T12:23:03;16.90;99.90
59208;DHT22;44977;53.132;6.408;2023-07-22T12:28:06;16.90;99.90
59208;DHT22;44977;53.132;6.408;2023-07-22T12:33:08;16.90;99.90
59208;DHT22;44977;53.132;6.408;2023-07-22T12:38:10;16.90;99.90
59208;DHT22;44977;53.132;6.408;2023-07-22T12:43:10;16.90;99.90
59208;DHT22;44977;53.132;6.408;2023-07-22T12:48:11;17.00;99.90
59208;DHT22;44977;53.132;6.408;2023-07-22T12:53:12;17.10;99.90
59208;DHT22;44977;53.132;6.408;2023-07-22T12:58:13;17.20;99.90
59208;DHT22;44977;53.132;6.408;2023-07-22T13:03:14;17.20;99.90
59208;DHT22;44977;53.132;6.408;2023-07-22T13:08:15;17.30;99.90
59208;DHT22;44977;53.132;6.408;2023-07-22T13:13:15;17.40;99.90
59208;DHT22;44977;53.132;6.408;2023-07-22T13:18:16;17.60;99.90
59208;DHT22;44977;53.132;6.408;2023-07-22T13:23:17;17.60;99.90
59208;DHT22;44977;53.132;6.408;2023-07-22T13:28:18;17.60;99.90
59208;DHT22;44977;53.132;6.408;2023-07-22T13:33:18;17.60;99.90
59208;DHT22;44977;53.132;6.408;2023-07-22T13:38:19;17.60;99.90
59208;DHT22;44977;53.132;6.408;2023-07-22T13:43:21;17.70;99.90
59208;DHT22;44977;53.132;6.408;2023-07-22T13:48:22;17.70;99.90
59208;DHT22;44977;53.132;6.408;2023-07-22T13:53:23;17.80;99.90
59208;DHT22;44977;53.132;6.408;2023-07-22T13:58:24;17.70;99.90
59208;DHT22;44977;53.132;6.408;2023-07-22T14:03:25;17.80;99.90
59208;DHT22;44977;53.132;6.408;2023-07-22T14:08:25;17.80;99.90
59208;DHT22;44977;53.132;6.408;2023-07-22T14:13:26;17.90;99.90
59208;DHT22;44977;53.132;6.408;2023-07-22T14:18:27;17.90;99.90
59208;DHT22;44977;53.132;6.408;2023-07-22T14:23:27;17.90;99.90
59208;DHT22;44977;53.132;6.408;2023-07-22T14:28:28;18.00;99.90
59208;DHT22;44977;53.132;6.408;2023-07-22T14:33:29;18.10;99.90
59208;DHT22;44977;53.132;6.408;2023-07-22T14:38:30;18.10;99.90
59208;DHT22;44977;53.132;6.408;2023-07-22T14:43:30;18.20;99.90
59208;DHT22;44977;53.132;6.408;2023-07-22T14:48:31;18.30;99.90
59208;DHT22;44977;53.132;6.408;2023-07-22T14:53:32;18.40;99.90
59208;DHT22;44977;53.132;6.408;2023-07-22T14:58:32;18.40;99.90
59208;DHT22;44977;53.132;6.408;2023-07-22T15:03:33;18.50;99.90
59208;DHT22;44977;53.132;6.408;2023-07-22T15:08:34;18.50;99.90
59208;DHT22;44977;53.132;6.408;2023-07-22T15:13:34;18.30;99.90
59208;DHT22;44977;53.132;6.408;2023-07-22T15:18:35;18.30;99.90
59208;DHT22;44977;53.132;6.408;2023-07-22T15:23:36;18.30;99.90
59208;DHT22;44977;53.132;6.408;2023-07-22T15:28:36;18.20;99.90
59208;DHT22;44977;53.132;6.408;2023-07-22T15:33:37;18.10;99.90
59208;DHT22;44977;53.132;6.408;2023-07-22T15:38:38;18.00;99.90
59208;DHT22;44977;53.132;6.408;2023-07-22T15:43:39;18.00;99.90
59208;DHT22;44977;53.132;6.408;2023-07-22T15:48:40;17.80;99.90
59208;DHT22;44977;53.132;6.408;2023-07-22T15:53:40;17.80;99.90
59208;DHT22;44977;53.132;6.408;2023-07-22T15:58:41;17.70;99.90
59208;DHT22;44977;53.132;6.408;2023-07-22T16:03:42;17.70;99.90
59208;DHT22;44977;53.132;6.408;2023-07-22T16:08:42;17.60;99.90
59208;DHT22;44977;53.132;6.408;2023-07-22T16:13:43;17.60;99.90
59208;DHT22;44977;53.132;6.408;2023-07-22T16:18:44;17.50;99.90
59208;DHT22;44977;53.132;6.408;2023-07-22T16:23:44;17.50;99.90
59208;DHT22;44977;53.132;6.408;2023-07-22T16:28:45;17.50;99.90
59208;DHT22;44977;53.132;6.408;2023-07-22T16:33:46;17.50;99.90
59208;DHT22;44977;53.132;6.408;2023-07-22T16:38:46;17.50;99.90
59208;DHT22;44977;53.132;6.408;2023-07-22T16:43:47;17.50;99.90
59208;DHT22;44977;53.132;6.408;2023-07-22T16:48:48;17.50;99.90
59208;DHT22;44977;53.132;6.408;2023-07-22T16:53:49;17.50;99.90
59208;DHT22;44977;53.132;6.408;2023-07-22T16:58:50;17.40;99.90
59208;DHT22;44977;53.132;6.408;2023-07-22T17:03:51;17.40;99.90
59208;DHT22;44977;53.132;6.408;2023-07-22T17:08:51;17.30;99.90
59208;DHT22;44977;53.132;6.408;2023-07-22T17:13:52;17.30;99.90
59208;DHT22;44977;53.132;6.408;2023-07-22T17:18:53;17.20;99.90
59208;DHT22;44977;53.132;6.408;2023-07-22T17:23:54;17.20;99.90
59208;DHT22;44977;53.132;6.408;2023-07-22T17:28:54;17.20;99.90
59208;DHT22;44977;53.132;6.408;2023-07-22T17:33:56;17.10;99.90
59208;DHT22;44977;53.132;6.408;2023-07-22T17:38:56;17.10;99.90
59208;DHT22;44977;53.132;6.408;2023-07-22T17:43:57;17.10;99.90
59208;DHT22;44977;53.132;6.408;2023-07-22T17:48:58;17.00;99.90
59208;DHT22;44977;53.132;6.408;2023-07-22T17:54:00;17.00;99.90
59208;DHT22;44977;53.132;6.408;2023-07-22T17:59:03;17.00;99.90
59208;DHT22;44977;53.132;6.408;2023-07-22T18:04:04;16.90;99.90
59208;DHT22;44977;53.132;6.408;2023-07-22T18:09:05;16.90;99.90
59208;DHT22;44977;53.132;6.408;2023-07-22T18:14:06;16.90;99.90
59208;DHT22;44977;53.132;6.408;2023-07-22T18:19:07;16.90;99.90
59208;DHT22;44977;53.132;6.408;2023-07-22T18:24:08;16.80;99.90
59208;DHT22;44977;53.132;6.408;2023-07-22T18:29:09;16.80;99.90
59208;DHT22;44977;53.132;6.408;2023-07-22T18:34:10;16.80;99.90
59208;DHT22;44977;53.132;6.408;2023-07-22T18:39:11;16.70;99.90
59208;DHT22;44977;53.132;6.408;2023-07-22T18:44:11;16.70;99.90
59208;DHT22;44977;53.132;6.408;2023-07-22T18:49:12;16.60;99.90
59208;DHT22;44977;53.132;6.408;2023-07-22T18:54:13;16.60;99.90
59208;DHT22;44977;53.132;6.408;2023-07-22T18:59:13;16.60;99.90
59208;DHT22;44977;53.132;6.408;2023-07-22T19:04:14;16.60;99.90
59208;DHT22;44977;53.132;6.408;2023-07-22T19:09:15;16.50;99.90
59208;DHT22;44977;53.132;6.408;2023-07-22T19:14:15;16.50;99.90
59208;DHT22;44977;53.132;6.408;2023-07-22T19:19:16;16.50;99.90
59208;DHT22;44977;53.132;6.408;2023-07-22T19:24:18;16.50;99.90
59208;DHT22;44977;53.132;6.408;2023-07-22T19:29:18;16.40;99.90
59208;DHT22;44977;53.132;6.408;2023-07-22T19:34:19;16.40;99.90
59208;DHT22;44977;53.132;6.408;2023-07-22T19:39:20;16.40;99.90
59208;DHT22;44977;53.132;6.408;2023-07-22T19:44:20;16.40;99.90
59208;DHT22;44977;53.132;6.408;2023-07-22T19:49:21;16.30;99.90
59208;DHT22;44977;53.132;6.408;2023-07-22T19:54:22;16.30;99.90
59208;DHT22;44977;53.132;6.408;2023-07-22T19:59:22;16.20;99.90
59208;DHT22;44977;53.132;6.408;2023-07-22T20:04:23;16.20;99.90
59208;DHT22;44977;53.132;6.408;2023-07-22T20:09:24;16.10;99.90
59208;DHT22;44977;53.132;6.408;2023-07-22T20:14:25;16.10;99.90
59208;DHT22;44977;53.132;6.408;2023-07-22T20:19:25;16.00;99.90
59208;DHT22;44977;53.132;6.408;2023-07-22T20:24:26;16.00;99.90
59208;DHT22;44977;53.132;6.408;2023-07-22T20:29:27;16.00;99.90
59208;DHT22;44977;53.132;6.408;2023-07-22T20:34:28;16.00;99.90
59208;DHT22;44977;53.132;6.408;2023-07-22T20:39:28;15.90;99.90
59208;DHT22;44977;53.132;6.408;2023-07-22T20:44:29;15.90;99.90
59208;DHT22;44977;53.132;6.408;2023-07-22T20:49:30;15.80;99.90
59208;DHT22;44977;53.132;6.408;2023-07-22T20:54:31;15.80;99.90
59208;DHT22;44977;53.132;6.408;2023-07-22T20:59:32;15.70;99.90
59208;DHT22;44977;53.132;6.408;2023-07-22T21:04:32;15.70;99.90
59208;DHT22;44977;53.132;6.408;2023-07-22T21:09:34;15.70;99.90
59208;DHT22;44977;53.132;6.408;2023-07-22T21:14:34;15.60;99.90
59208;DHT22;44977;53.132;6.408;2023-07-22T21:19:35;15.50;99.90
59208;DHT22;44977;53.132;6.408;2023-07-22T21:24:36;15.50;99.90
59208;DHT22;44977;53.132;6.408;2023-07-22T21:29:36;15.50;99.90
59208;DHT22;44977;53.132;6.408;2023-07-22T21:34:37;15.50;99.90
59208;DHT22;44977;53.132;6.408;2023-07-22T21:39:38;15.50;99.90
59208;DHT22;44977;53.132;6.408;2023-07-22T21:44:38;15.50;99.90
59208;DHT22;44977;53.132;6.408;2023-07-22T21:49:39;15.50;99.90
59208;DHT22;44977;53.132;6.408;2023-07-22T21:54:40;15.50;99.90
59208;DHT22;44977;53.132;6.408;2023-07-22T21:59:40;15.50;99.90
59208;DHT22;44977;53.132;6.408;2023-07-22T22:04:43;15.50;99.90
59208;DHT22;44977;53.132;6.408;2023-07-22T22:09:43;15.50;99.90
59208;DHT22;44977;53.132;6.408;2023-07-22T22:14:44;15.50;99.90
59208;DHT22;44977;53.132;6.408;2023-07-22T22:19:45;15.40;99.90
59208;DHT22;44977;53.132;6.408;2023-07-22T22:24:46;15.40;99.90
59208;DHT22;44977;53.132;6.408;2023-07-22T22:29:49;15.40;99.90
59208;DHT22;44977;53.132;6.408;2023-07-22T22:34:50;15.40;99.90
59208;DHT22;44977;53.132;6.408;2023-07-22T22:39:50;15.30;99.90
59208;DHT22;44977;53.132;6.408;2023-07-22T22:44:51;15.30;99.90
59208;DHT22;44977;53.132;6.408;2023-07-22T22:49:52;15.30;99.90
59208;DHT22;44977;53.132;6.408;2023-07-22T22:54:52;15.20;99.90
59208;DHT22;44977;53.132;6.408;2023-07-22T22:59:53;15.20;99.90
59208;DHT22;44977;53.132;6.408;2023-07-22T23:04:54;15.10;99.90
59208;DHT22;44977;53.132;6.408;2023-07-22T23:09:54;15.10;99.90
59208;DHT22;44977;53.132;6.408;2023-07-22T23:14:55;15.10;99.90
59208;DHT22;44977;53.132;6.408;2023-07-22T23:19:56;15.10;99.90
59208;DHT22;44977;53.132;6.408;2023-07-22T23:24:57;15.10;99.90
59208;DHT22;44977;53.132;6.408;2023-07-22T23:29:57;15.10;99.90
59208;DHT22;44977;53.132;6.408;2023-07-22T23:34:58;15.10;99.90
59208;DHT22;44977;53.132;6.408;2023-07-22T23:40:00;15.10;99.90
59208;DHT22;44977;53.132;6.408;2023-07-22T23:45:00;15.00;99.90
59208;DHT22;44977;53.132;6.408;2023-07-22T23:50:02;15.00;99.90
59208;DHT22;44977;53.132;6.408;2023-07-22T23:55:03;15.00;99.90
